Reuben, Nebraska
Current Conditions -  °F | °C
As of 12:15 AM on Thursday 29 Jan 2015 (Local Time) from KHDE Reporting Station
Broken Clouds Broken Clouds  
Wind Chill: 33°   Ceiling: 2700
Heat Index: 43°   Visibility: 10mi
Dew Point: 32°   Wind: 25mph
Humidity: 65%   Direction: 350°N
Pressure: 30.14"   Gusts: 36mph
Location:  40.2849°N, 99.6171°W
Report Text: KHDE 290615Z AUTO 35022G31KT 10SM BKN027 06/00 A3014 RMK AO2 T00610000
Loading
Personal Weather Stations






























Interactive Weather Map New forecast layout! Learn more

10-Day Weather Forecast

Advertisements
Track Severe Weather on mobile